This is the latest recevied weather packets stored in our database for station/object KB1RMA-4. If no packets are shown the sender has not sent any weather packets the latest 10 day(s).
| Time | Temp. | Humidity | Pressure | Rain* | Wind** | Luminosity | Snow |
|---|---|---|---|---|---|---|---|
| 1788550025 | 25.56° C | 67% | 1008.4 hPa | 0 mm | - | 547 W/m² | - |
| 1788549720 | 25.56° C | 65% | 1008 hPa | 0 mm | - | 416 W/m² | - |
| 1788549417 | 25° C | 69% | 1008.3 hPa | 0 mm | - | 528 W/m² | - |
| 1788549113 | 25.56° C | 68% | 1008.3 hPa | 0 mm | - | 570 W/m² | - |
| 1788548809 | 25° C | 68% | 1008.1 hPa | 0 mm | - | 570 W/m² | - |
| 1788548499 | 24.44° C | 70% | 1008.1 hPa | 0 mm | - | 580 W/m² | - |
| 1788548196 | 26.11° C | 64% | 1008.2 hPa | 0 mm | - | 419 W/m² | - |
| 1788547907 | 26.11° C | 66% | 1008.6 hPa | 0 mm | - | 671 W/m² | - |
| 1788547594 | 26.11° C | 64% | 1008.6 hPa | 0 mm | - | 647 W/m² | - |
| 1788547290 | 29.44° C | 45% | 1008.5 hPa | 0 mm | - | 611 W/m² | - |
| 1788546986 | 29.44° C | 43% | 1008.2 hPa | 0 mm | - | 635 W/m² | - |
| 1788546686 | 29.44° C | 46% | 1008.4 hPa | 0 mm | - | 669 W/m² | - |
| 1788546381 | 29.44° C | 48% | 1008.4 hPa | 0 mm | - | 621 W/m² | - |
| 1788546076 | 28.89° C | 49% | 1008.2 hPa | 0 mm | - | 619 W/m² | - |
| 1788545772 | 28.89° C | 48% | 1008.4 hPa | 0 mm | - | 621 W/m² | - |
| 1788545472 | 28.89° C | 48% | 1008.6 hPa | 0 mm | - | 633 W/m² | - |
| 1788545168 | 27.78° C | 51% | 1008.4 hPa | 0 mm | - | 652 W/m² | - |
| 1788544862 | 28.33° C | 51% | 1008.5 hPa | 0 mm | - | 166 W/m² | - |
| 1788544561 | 28.89° C | 48% | 1008.3 hPa | 0 mm | - | 481 W/m² | - |
| 1788544260 | 28.89° C | 47% | 1008.2 hPa | 0 mm | - | 277 W/m² | - |
| 1788543954 | 29.44° C | 47% | 1008.5 hPa | 0 mm | - | 223 W/m² | - |
| 1788543652 | 28.89° C | 46% | 1008.2 hPa | 0 mm | - | 739 W/m² | - |
| 1788543351 | 29.44° C | 49% | 1008.3 hPa | 0 mm | - | 706 W/m² | - |
| 1788543047 | 28.33° C | 48% | 1008.5 hPa | 0 mm | - | 702 W/m² | - |
| 1788542743 | 28.33° C | 51% | 1008.4 hPa | 0 mm | - | 691 W/m² | - |
* Rain latest hour (hover to see other rain measurements)
** Current wind speed in m/s (hover to see current wind gust speed)